sensor_id;sensor_type;location;lat;lon;timestamp;pressure;altitude;pressure_sealevel;temperature;humidity
73633;BME280;61927;50.080;14.418;2023-07-28T00:01:24;98577.34;;;17.47;81.47
73633;BME280;61927;50.080;14.418;2023-07-28T00:03:49;98565.94;;;17.45;81.58
73633;BME280;61927;50.080;14.418;2023-07-28T00:06:15;98563.44;;;17.43;81.66
73633;BME280;61927;50.080;14.418;2023-07-28T00:08:40;98557.75;;;17.47;81.69
73633;BME280;61927;50.080;14.418;2023-07-28T00:11:13;98553.06;;;17.49;81.71
73633;BME280;61927;50.080;14.418;2023-07-28T00:13:39;98558.09;;;17.52;81.54
73633;BME280;61927;50.080;14.418;2023-07-28T00:16:05;98550.91;;;17.52;81.25
73633;BME280;61927;50.080;14.418;2023-07-28T00:18:31;98547.72;;;17.57;81.17
73633;BME280;61927;50.080;14.418;2023-07-28T00:20:57;98553.78;;;17.59;80.80
73633;BME280;61927;50.080;14.418;2023-07-28T00:23:23;98546.41;;;17.61;81.03
73633;BME280;61927;50.080;14.418;2023-07-28T00:25:49;98548.25;;;17.60;80.75
73633;BME280;61927;50.080;14.418;2023-07-28T00:28:14;98552.44;;;17.63;81.00
73633;BME280;61927;50.080;14.418;2023-07-28T00:30:40;98556.53;;;17.67;80.34
73633;BME280;61927;50.080;14.418;2023-07-28T00:33:05;98553.84;;;17.67;80.28
73633;BME280;61927;50.080;14.418;2023-07-28T00:35:31;98558.22;;;17.68;80.63
73633;BME280;61927;50.080;14.418;2023-07-28T00:37:57;98555.38;;;17.69;80.59
73633;BME280;61927;50.080;14.418;2023-07-28T00:40:23;98549.84;;;17.71;80.60
73633;BME280;61927;50.080;14.418;2023-07-28T00:42:48;98547.31;;;17.69;81.09
73633;BME280;61927;50.080;14.418;2023-07-28T00:45:14;98551.16;;;17.67;81.02
73633;BME280;61927;50.080;14.418;2023-07-28T00:47:40;98554.69;;;17.67;81.65
73633;BME280;61927;50.080;14.418;2023-07-28T00:50:08;98554.53;;;17.69;81.37
73633;BME280;61927;50.080;14.418;2023-07-28T00:52:34;98564.78;;;17.73;81.19
73633;BME280;61927;50.080;14.418;2023-07-28T00:55:00;98558.88;;;17.70;81.64
73633;BME280;61927;50.080;14.418;2023-07-28T00:57:26;98550.00;;;17.69;81.55
73633;BME280;61927;50.080;14.418;2023-07-28T00:59:52;98546.63;;;17.67;81.69
73633;BME280;61927;50.080;14.418;2023-07-28T01:02:19;98559.50;;;17.64;82.04
73633;BME280;61927;50.080;14.418;2023-07-28T01:04:45;98544.72;;;17.60;81.96
73633;BME280;61927;50.080;14.418;2023-07-28T01:07:17;98535.00;;;17.59;82.09
73633;BME280;61927;50.080;14.418;2023-07-28T01:12:13;98539.44;;;17.68;81.47
73633;BME280;61927;50.080;14.418;2023-07-28T01:14:39;98538.44;;;17.69;81.37
73633;BME280;61927;50.080;14.418;2023-07-28T01:17:04;98533.06;;;17.69;81.48
73633;BME280;61927;50.080;14.418;2023-07-28T01:19:30;98530.91;;;17.72;81.00
73633;BME280;61927;50.080;14.418;2023-07-28T01:25:04;98518.31;;;17.73;81.06
73633;BME280;61927;50.080;14.418;2023-07-28T01:27:31;98525.69;;;17.71;80.83
73633;BME280;61927;50.080;14.418;2023-07-28T01:29:58;98523.84;;;17.71;81.26
73633;BME280;61927;50.080;14.418;2023-07-28T01:32:24;98525.38;;;17.74;81.51
73633;BME280;61927;50.080;14.418;2023-07-28T01:34:49;98521.50;;;17.77;81.11
73633;BME280;61927;50.080;14.418;2023-07-28T01:37:15;98525.03;;;17.77;81.30
73633;BME280;61927;50.080;14.418;2023-07-28T01:39:40;98526.88;;;17.77;81.09
73633;BME280;61927;50.080;14.418;2023-07-28T01:42:06;98515.31;;;17.76;81.20
73633;BME280;61927;50.080;14.418;2023-07-28T01:44:32;98511.28;;;17.72;81.49
73633;BME280;61927;50.080;14.418;2023-07-28T01:46:57;98514.28;;;17.69;81.86
73633;BME280;61927;50.080;14.418;2023-07-28T01:49:23;98525.69;;;17.71;81.89
73633;BME280;61927;50.080;14.418;2023-07-28T01:51:48;98499.53;;;17.73;81.55
73633;BME280;61927;50.080;14.418;2023-07-28T01:54:14;98506.75;;;17.72;81.54
73633;BME280;61927;50.080;14.418;2023-07-28T01:56:40;98500.53;;;17.72;81.33
73633;BME280;61927;50.080;14.418;2023-07-28T01:59:05;98502.38;;;17.71;81.43
73633;BME280;61927;50.080;14.418;2023-07-28T02:01:31;98508.59;;;17.72;81.76
73633;BME280;61927;50.080;14.418;2023-07-28T02:03:56;98493.50;;;17.71;81.61
73633;BME280;61927;50.080;14.418;2023-07-28T02:06:22;98495.69;;;17.75;81.04
73633;BME280;61927;50.080;14.418;2023-07-28T02:08:48;98494.00;;;17.74;81.27
73633;BME280;61927;50.080;14.418;2023-07-28T02:11:13;98494.69;;;17.77;80.44
73633;BME280;61927;50.080;14.418;2023-07-28T02:13:39;98494.53;;;17.78;80.01
73633;BME280;61927;50.080;14.418;2023-07-28T02:16:04;98500.41;;;17.82;79.72
73633;BME280;61927;50.080;14.418;2023-07-28T02:18:30;98490.50;;;17.82;80.42
73633;BME280;61927;50.080;14.418;2023-07-28T02:20:56;98487.50;;;17.85;81.18
73633;BME280;61927;50.080;14.418;2023-07-28T02:23:21;98489.66;;;17.82;81.33
73633;BME280;61927;50.080;14.418;2023-07-28T02:25:47;98492.69;;;17.79;81.45
73633;BME280;61927;50.080;14.418;2023-07-28T02:28:12;98490.00;;;17.79;81.81
73633;BME280;61927;50.080;14.418;2023-07-28T02:30:38;98489.81;;;17.80;81.04
73633;BME280;61927;50.080;14.418;2023-07-28T02:33:04;98489.81;;;17.80;81.06
73633;BME280;61927;50.080;14.418;2023-07-28T02:35:29;98495.19;;;17.80;80.97
73633;BME280;61927;50.080;14.418;2023-07-28T02:37:57;98490.00;;;17.79;81.27
73633;BME280;61927;50.080;14.418;2023-07-28T02:40:22;98493.34;;;17.81;81.45
73633;BME280;61927;50.080;14.418;2023-07-28T02:42:48;98498.03;;;17.79;81.25
73633;BME280;61927;50.080;14.418;2023-07-28T02:45:14;98495.19;;;17.80;81.05
73633;BME280;61927;50.080;14.418;2023-07-28T02:47:39;98501.41;;;17.81;81.61
73633;BME280;61927;50.080;14.418;2023-07-28T02:50:05;98498.88;;;17.79;81.61
73633;BME280;61927;50.080;14.418;2023-07-28T02:52:31;98495.34;;;17.79;81.49
73633;BME280;61927;50.080;14.418;2023-07-28T02:54:56;98489.81;;;17.80;82.00
73633;BME280;61927;50.080;14.418;2023-07-28T02:57:22;98495.88;;;17.82;81.09
73633;BME280;61927;50.080;14.418;2023-07-28T02:59:47;98496.38;;;17.78;81.21
73633;BME280;61927;50.080;14.418;2023-07-28T03:02:13;98495.53;;;17.77;81.23
73633;BME280;61927;50.080;14.418;2023-07-28T03:04:38;98499.22;;;17.76;81.58
73633;BME280;61927;50.080;14.418;2023-07-28T03:07:04;98507.78;;;17.80;81.74
73633;BME280;61927;50.080;14.418;2023-07-28T03:09:30;98497.56;;;17.83;81.45
73633;BME280;61927;50.080;14.418;2023-07-28T03:11:55;98499.56;;;17.81;80.63
73633;BME280;61927;50.080;14.418;2023-07-28T03:14:21;98501.56;;;17.79;80.94
73633;BME280;61927;50.080;14.418;2023-07-28T03:16:47;98506.25;;;17.77;81.27
73633;BME280;61927;50.080;14.418;2023-07-28T03:19:12;98507.78;;;17.80;80.62
73633;BME280;61927;50.080;14.418;2023-07-28T03:21:38;98509.97;;;17.84;80.71
73633;BME280;61927;50.080;14.418;2023-07-28T03:24:04;98508.28;;;17.83;80.13
73633;BME280;61927;50.080;14.418;2023-07-28T03:26:30;98507.09;;;17.78;80.96
73633;BME280;61927;50.080;14.418;2023-07-28T03:28:55;98502.56;;;17.78;80.96
73633;BME280;61927;50.080;14.418;2023-07-28T03:31:21;98499.88;;;17.78;80.85
73633;BME280;61927;50.080;14.418;2023-07-28T03:33:46;98500.88;;;17.77;80.98
73633;BME280;61927;50.080;14.418;2023-07-28T03:36:12;98503.56;;;17.77;80.96
73633;BME280;61927;50.080;14.418;2023-07-28T03:38:38;98505.91;;;17.72;81.00
73633;BME280;61927;50.080;14.418;2023-07-28T03:41:03;98501.88;;;17.68;81.12
73633;BME280;61927;50.080;14.418;2023-07-28T03:43:29;98502.88;;;17.67;81.39
73633;BME280;61927;50.080;14.418;2023-07-28T03:45:55;98507.53;;;17.65;81.53
73633;BME280;61927;50.080;14.418;2023-07-28T03:48:20;98501.31;;;17.64;81.48
73633;BME280;61927;50.080;14.418;2023-07-28T03:50:46;98499.34;;;17.66;81.05
73633;BME280;61927;50.080;14.418;2023-07-28T03:53:11;98505.56;;;17.67;81.27
73633;BME280;61927;50.080;14.418;2023-07-28T03:55:37;98507.53;;;17.65;81.13
73633;BME280;61927;50.080;14.418;2023-07-28T03:58:02;98504.72;;;17.66;81.10
73633;BME280;61927;50.080;14.418;2023-07-28T04:00:29;98509.06;;;17.67;80.98
73633;BME280;61927;50.080;14.418;2023-07-28T04:02:54;98504.72;;;17.66;81.24
73633;BME280;61927;50.080;14.418;2023-07-28T04:05:20;98504.38;;;17.69;81.16
73633;BME280;61927;50.080;14.418;2023-07-28T04:07:45;98507.75;;;17.71;80.52
73633;BME280;61927;50.080;14.418;2023-07-28T04:10:11;98507.59;;;17.73;80.41
73633;BME280;61927;50.080;14.418;2023-07-28T04:12:37;98501.53;;;17.71;80.67
73633;BME280;61927;50.080;14.418;2023-07-28T04:15:02;98514.63;;;17.74;80.00
73633;BME280;61927;50.080;14.418;2023-07-28T04:17:28;98503.22;;;17.72;80.30
73633;BME280;61927;50.080;14.418;2023-07-28T04:19:54;98506.91;;;17.71;80.24
73633;BME280;61927;50.080;14.418;2023-07-28T04:22:19;98515.13;;;17.69;80.23
73633;BME280;61927;50.080;14.418;2023-07-28T04:24:47;98522.00;;;17.72;80.03
73633;BME280;61927;50.080;14.418;2023-07-28T04:27:13;98511.28;;;17.72;80.15
73633;BME280;61927;50.080;14.418;2023-07-28T04:29:39;98527.38;;;17.72;79.96
73633;BME280;61927;50.080;14.418;2023-07-28T04:32:05;98528.56;;;17.78;79.84
73633;BME280;61927;50.080;14.418;2023-07-28T04:34:34;98530.91;;;17.81;79.45
73633;BME280;61927;50.080;14.418;2023-07-28T04:37:00;98530.75;;;17.82;79.56
73633;BME280;61927;50.080;14.418;2023-07-28T04:39:25;98538.97;;;17.81;79.57
73633;BME280;61927;50.080;14.418;2023-07-28T04:41:51;98540.13;;;17.78;80.29
73633;BME280;61927;50.080;14.418;2023-07-28T04:44:18;98535.09;;;17.75;80.28
73633;BME280;61927;50.080;14.418;2023-07-28T04:46:44;98542.13;;;17.76;81.11
73633;BME280;61927;50.080;14.418;2023-07-28T04:49:13;98538.28;;;17.79;80.65
73633;BME280;61927;50.080;14.418;2023-07-28T04:51:39;98527.72;;;17.77;81.31
73633;BME280;61927;50.080;14.418;2023-07-28T04:54:04;98526.19;;;17.74;81.31
73633;BME280;61927;50.080;14.418;2023-07-28T04:56:30;98537.94;;;17.73;81.41
73633;BME280;61927;50.080;14.418;2023-07-28T04:58:55;98527.53;;;17.70;82.12
73633;BME280;61927;50.080;14.418;2023-07-28T05:01:21;98531.06;;;17.71;82.26
73633;BME280;61927;50.080;14.418;2023-07-28T05:03:47;98516.63;;;17.72;82.04
73633;BME280;61927;50.080;14.418;2023-07-28T05:06:13;98526.03;;;17.76;82.34
73633;BME280;61927;50.080;14.418;2023-07-28T05:08:38;98530.72;;;17.74;82.75
73633;BME280;61927;50.080;14.418;2023-07-28T05:11:04;98533.41;;;17.74;82.91
73633;BME280;61927;50.080;14.418;2023-07-28T05:13:29;98531.41;;;17.76;82.66
73633;BME280;61927;50.080;14.418;2023-07-28T05:15:55;98539.47;;;17.76;83.09
73633;BME280;61927;50.080;14.418;2023-07-28T05:18:20;98538.47;;;17.77;82.80
73633;BME280;61927;50.080;14.418;2023-07-28T05:20:46;98542.81;;;17.78;82.80
73633;BME280;61927;50.080;14.418;2023-07-28T05:23:12;98544.66;;;17.78;83.06
73633;BME280;61927;50.080;14.418;2023-07-28T05:25:37;98547.50;;;17.76;83.18
73633;BME280;61927;50.080;14.418;2023-07-28T05:28:03;98550.03;;;17.78;82.87
73633;BME280;61927;50.080;14.418;2023-07-28T05:30:28;98556.91;;;17.80;83.20
73633;BME280;61927;50.080;14.418;2023-07-28T05:32:54;98541.16;;;17.85;83.38
73633;BME280;61927;50.080;14.418;2023-07-28T05:35:20;98543.53;;;17.88;83.13
73633;BME280;61927;50.080;14.418;2023-07-28T05:37:46;98539.00;;;17.89;82.95
73633;BME280;61927;50.080;14.418;2023-07-28T05:40:12;98551.25;;;17.91;83.13
73633;BME280;61927;50.080;14.418;2023-07-28T05:42:38;98550.59;;;17.97;83.07
73633;BME280;61927;50.080;14.418;2023-07-28T05:45:03;98554.47;;;18.03;82.31
73633;BME280;61927;50.080;14.418;2023-07-28T05:47:29;98554.50;;;18.11;82.42
73633;BME280;61927;50.080;14.418;2023-07-28T05:49:55;98565.25;;;18.19;82.18
73633;BME280;61927;50.080;14.418;2023-07-28T05:52:20;98561.75;;;18.27;82.14
73633;BME280;61927;50.080;14.418;2023-07-28T05:54:47;98564.63;;;18.42;81.14
73633;BME280;61927;50.080;14.418;2023-07-28T05:57:13;98573.53;;;18.50;80.27
73633;BME280;61927;50.080;14.418;2023-07-28T05:59:39;98571.00;;;18.57;80.52
73633;BME280;61927;50.080;14.418;2023-07-28T06:02:05;98577.25;;;18.65;80.17
73633;BME280;61927;50.080;14.418;2023-07-28T06:04:31;98579.44;;;18.70;80.60
73633;BME280;61927;50.080;14.418;2023-07-28T06:06:56;98579.13;;;18.73;79.59
73633;BME280;61927;50.080;14.418;2023-07-28T06:09:22;98589.38;;;18.78;79.43
73633;BME280;61927;50.080;14.418;2023-07-28T06:11:48;98581.97;;;18.80;79.05
73633;BME280;61927;50.080;14.418;2023-07-28T06:14:13;98570.38;;;18.79;78.79
73633;BME280;61927;50.080;14.418;2023-07-28T06:16:39;98573.56;;;18.83;79.33
73633;BME280;61927;50.080;14.418;2023-07-28T06:19:04;98577.44;;;18.80;79.30
73633;BME280;61927;50.080;14.418;2023-07-28T06:21:30;98584.66;;;18.80;79.50
73633;BME280;61927;50.080;14.418;2023-07-28T06:23:56;98584.81;;;18.78;79.17
73633;BME280;61927;50.080;14.418;2023-07-28T06:26:22;98577.94;;;18.76;79.27
73633;BME280;61927;50.080;14.418;2023-07-28T06:28:47;98585.84;;;18.77;79.05
73633;BME280;61927;50.080;14.418;2023-07-28T06:31:13;98585.16;;;18.83;78.97
73633;BME280;61927;50.080;14.418;2023-07-28T06:33:38;98576.59;;;18.88;79.44
73633;BME280;61927;50.080;14.418;2023-07-28T06:36:04;98593.06;;;18.93;78.99
73633;BME280;61927;50.080;14.418;2023-07-28T06:38:30;98598.09;;;18.96;79.10
73633;BME280;61927;50.080;14.418;2023-07-28T06:40:56;98593.91;;;19.01;79.23
73633;BME280;61927;50.080;14.418;2023-07-28T06:43:21;98598.75;;;19.06;79.97
73633;BME280;61927;50.080;14.418;2023-07-28T06:45:50;98595.56;;;19.19;78.82
73633;BME280;61927;50.080;14.418;2023-07-28T06:48:16;98588.66;;;19.16;78.83
73633;BME280;61927;50.080;14.418;2023-07-28T06:50:42;98599.59;;;19.23;78.46
73633;BME280;61927;50.080;14.418;2023-07-28T06:53:08;98597.91;;;19.22;78.35
73633;BME280;61927;50.080;14.418;2023-07-28T06:55:34;98586.81;;;19.25;78.19
73633;BME280;61927;50.080;14.418;2023-07-28T06:57:59;98593.69;;;19.27;78.76
73633;BME280;61927;50.080;14.418;2023-07-28T07:00:25;98595.03;;;19.31;78.78
73633;BME280;61927;50.080;14.418;2023-07-28T07:02:51;98595.03;;;19.31;78.69
73633;BME280;61927;50.080;14.418;2023-07-28T07:05:16;98592.00;;;19.34;78.77
73633;BME280;61927;50.080;14.418;2023-07-28T07:07:42;98591.31;;;19.41;78.74
73633;BME280;61927;50.080;14.418;2023-07-28T07:10:08;98595.16;;;19.46;78.96
73633;BME280;61927;50.080;14.418;2023-07-28T07:12:34;98590.47;;;19.48;78.80
73633;BME280;61927;50.080;14.418;2023-07-28T07:14:59;98596.69;;;19.49;78.92
73633;BME280;61927;50.080;14.418;2023-07-28T07:17:25;98597.88;;;19.54;77.54
73633;BME280;61927;50.080;14.418;2023-07-28T07:19:50;98595.31;;;19.61;77.96
73633;BME280;61927;50.080;14.418;2023-07-28T07:22:16;98600.66;;;19.77;77.30
73633;BME280;61927;50.080;14.418;2023-07-28T07:24:42;98601.97;;;19.89;76.65
73633;BME280;61927;50.080;14.418;2023-07-28T07:27:07;98604.25;;;20.00;76.35
73633;BME280;61927;50.080;14.418;2023-07-28T07:29:39;98603.22;;;20.10;76.10
73633;BME280;61927;50.080;14.418;2023-07-28T07:32:06;98602.50;;;20.16;75.58
73633;BME280;61927;50.080;14.418;2023-07-28T07:34:33;98600.13;;;20.21;75.99
73633;BME280;61927;50.080;14.418;2023-07-28T07:36:59;98600.59;;;20.24;76.25
73633;BME280;61927;50.080;14.418;2023-07-28T07:39:24;98599.72;;;20.40;75.52
73633;BME280;61927;50.080;14.418;2023-07-28T07:41:50;98603.13;;;20.57;74.65
73633;BME280;61927;50.080;14.418;2023-07-28T07:44:16;98605.06;;;20.71;74.32
73633;BME280;61927;50.080;14.418;2023-07-28T07:46:41;98611.94;;;20.74;73.95
73633;BME280;61927;50.080;14.418;2023-07-28T07:49:07;98615.66;;;20.73;73.50
73633;BME280;61927;50.080;14.418;2023-07-28T07:51:34;98617.16;;;20.75;73.64
73633;BME280;61927;50.080;14.418;2023-07-28T07:54:00;98630.28;;;20.78;74.05
73633;BME280;61927;50.080;14.418;2023-07-28T07:56:27;98624.88;;;20.78;72.86
73633;BME280;61927;50.080;14.418;2023-07-28T07:58:52;98624.34;;;20.83;72.98
73633;BME280;61927;50.080;14.418;2023-07-28T08:01:18;98629.69;;;20.91;72.80
73633;BME280;61927;50.080;14.418;2023-07-28T08:03:44;98616.91;;;20.85;73.05
73633;BME280;61927;50.080;14.418;2023-07-28T08:06:09;98615.72;;;20.87;73.53
73633;BME280;61927;50.080;14.418;2023-07-28T08:08:36;98617.09;;;20.83;73.47
73633;BME280;61927;50.080;14.418;2023-07-28T08:11:02;98617.94;;;20.84;72.83
73633;BME280;61927;50.080;14.418;2023-07-28T08:13:28;98614.03;;;20.86;73.25
73633;BME280;61927;50.080;14.418;2023-07-28T08:15:54;98617.63;;;21.02;72.55
73633;BME280;61927;50.080;14.418;2023-07-28T08:18:19;98625.16;;;21.06;71.43
73633;BME280;61927;50.080;14.418;2023-07-28T08:20:45;98630.50;;;21.14;71.56
73633;BME280;61927;50.080;14.418;2023-07-28T08:23:10;98630.31;;;21.16;71.63
73633;BME280;61927;50.080;14.418;2023-07-28T08:25:36;98621.53;;;21.22;70.67
73633;BME280;61927;50.080;14.418;2023-07-28T08:28:02;98632.59;;;21.27;70.47
73633;BME280;61927;50.080;14.418;2023-07-28T08:30:28;98628.72;;;21.30;70.02
73633;BME280;61927;50.080;14.418;2023-07-28T08:32:53;98616.81;;;21.39;70.34
73633;BME280;61927;50.080;14.418;2023-07-28T08:35:19;98622.59;;;21.50;69.95
73633;BME280;61927;50.080;14.418;2023-07-28T08:37:44;98617.28;;;21.57;68.64
73633;BME280;61927;50.080;14.418;2023-07-28T08:40:11;98615.16;;;21.67;68.40
73633;BME280;61927;50.080;14.418;2023-07-28T08:42:39;98617.41;;;21.93;67.87
73633;BME280;61927;50.080;14.418;2023-07-28T08:45:06;98620.56;;;22.11;67.68
73633;BME280;61927;50.080;14.418;2023-07-28T08:47:34;98632.69;;;22.15;66.49
73633;BME280;61927;50.080;14.418;2023-07-28T08:50:00;98628.31;;;22.14;66.56
73633;BME280;61927;50.080;14.418;2023-07-28T08:52:25;98627.84;;;22.11;65.49
73633;BME280;61927;50.080;14.418;2023-07-28T08:54:51;98630.72;;;22.09;66.05
73633;BME280;61927;50.080;14.418;2023-07-28T08:57:17;98628.88;;;22.10;66.25
73633;BME280;61927;50.080;14.418;2023-07-28T08:59:44;98632.69;;;22.15;66.21
73633;BME280;61927;50.080;14.418;2023-07-28T09:02:17;98626.16;;;22.24;66.16
73633;BME280;61927;50.080;14.418;2023-07-28T09:04:45;98626.56;;;22.43;65.37
73633;BME280;61927;50.080;14.418;2023-07-28T09:07:10;98626.00;;;22.47;65.10
73633;BME280;61927;50.080;14.418;2023-07-28T09:09:36;98628.91;;;22.67;64.57
73633;BME280;61927;50.080;14.418;2023-07-28T09:12:02;98628.41;;;22.78;63.40
73633;BME280;61927;50.080;14.418;2023-07-28T09:14:29;98638.97;;;22.73;63.44
73633;BME280;61927;50.080;14.418;2023-07-28T09:16:55;98631.88;;;22.51;63.68
73633;BME280;61927;50.080;14.418;2023-07-28T09:19:21;98634.41;;;22.38;63.99
73633;BME280;61927;50.080;14.418;2023-07-28T09:22:00;98626.38;;;22.44;64.15
73633;BME280;61927;50.080;14.418;2023-07-28T09:24:32;98625.31;;;22.60;63.59
73633;BME280;61927;50.080;14.418;2023-07-28T09:26:59;98622.16;;;22.78;63.11
73633;BME280;61927;50.080;14.418;2023-07-28T09:29:25;98626.44;;;22.87;62.96
73633;BME280;61927;50.080;14.418;2023-07-28T09:31:52;98627.09;;;22.89;63.27
73633;BME280;61927;50.080;14.418;2023-07-28T09:34:26;98619.09;;;22.81;63.36
73633;BME280;61927;50.080;14.418;2023-07-28T09:36:56;98619.59;;;22.70;63.16
73633;BME280;61927;50.080;14.418;2023-07-28T09:39:22;98615.44;;;22.52;63.66
73633;BME280;61927;50.080;14.418;2023-07-28T09:41:48;98623.53;;;22.31;63.89
73633;BME280;61927;50.080;14.418;2023-07-28T09:44:15;98625.03;;;22.19;64.19
73633;BME280;61927;50.080;14.418;2023-07-28T09:46:51;98623.38;;;22.03;65.05
73633;BME280;61927;50.080;14.418;2023-07-28T09:49:37;98619.16;;;22.01;65.06
73633;BME280;61927;50.080;14.418;2023-07-28T09:52:05;98620.13;;;22.08;65.10
73633;BME280;61927;50.080;14.418;2023-07-28T09:54:41;98622.66;;;22.45;63.55
73633;BME280;61927;50.080;14.418;2023-07-28T09:57:12;98618.81;;;22.76;62.24
73633;BME280;61927;50.080;14.418;2023-07-28T09:59:41;98613.44;;;22.97;61.43
73633;BME280;61927;50.080;14.418;2023-07-28T10:02:08;98621.94;;;23.15;60.49
73633;BME280;61927;50.080;14.418;2023-07-28T10:04:34;98616.03;;;23.33;60.37
73633;BME280;61927;50.080;14.418;2023-07-28T10:07:01;98615.09;;;23.47;59.28
73633;BME280;61927;50.080;14.418;2023-07-28T10:09:28;98614.69;;;23.50;58.58
73633;BME280;61927;50.080;14.418;2023-07-28T10:11:55;98616.91;;;23.40;59.53
73633;BME280;61927;50.080;14.418;2023-07-28T10:14:37;98625.09;;;23.47;58.76
73633;BME280;61927;50.080;14.418;2023-07-28T10:17:04;98618.53;;;23.35;58.77
73633;BME280;61927;50.080;14.418;2023-07-28T10:19:39;98619.72;;;23.26;59.19
73633;BME280;61927;50.080;14.418;2023-07-28T10:22:09;98622.69;;;23.31;59.31
73633;BME280;61927;50.080;14.418;2023-07-28T10:24:52;98618.63;;;23.48;58.81
73633;BME280;61927;50.080;14.418;2023-07-28T10:27:37;98619.44;;;23.42;58.69
73633;BME280;61927;50.080;14.418;2023-07-28T10:30:14;98619.38;;;23.35;58.40
73633;BME280;61927;50.080;14.418;2023-07-28T10:32:46;98622.72;;;23.37;58.50
73633;BME280;61927;50.080;14.418;2023-07-28T10:37:45;98625.84;;;23.62;57.32
73633;BME280;61927;50.080;14.418;2023-07-28T10:40:33;98634.56;;;23.58;57.37
73633;BME280;61927;50.080;14.418;2023-07-28T10:45:30;98636.50;;;23.42;57.73
73633;BME280;61927;50.080;14.418;2023-07-28T10:47:57;98638.38;;;23.42;57.47
73633;BME280;61927;50.080;14.418;2023-07-28T10:50:31;98637.47;;;23.56;57.18
73633;BME280;61927;50.080;14.418;2023-07-28T10:52:57;98633.97;;;23.62;57.34
73633;BME280;61927;50.080;14.418;2023-07-28T10:55:26;98633.00;;;23.70;56.66
73633;BME280;61927;50.080;14.418;2023-07-28T10:57:53;98634.31;;;23.80;56.29
73633;BME280;61927;50.080;14.418;2023-07-28T11:00:21;98640.38;;;23.82;56.42
73633;BME280;61927;50.080;14.418;2023-07-28T11:02:55;98628.81;;;24.02;55.40
73633;BME280;61927;50.080;14.418;2023-07-28T11:05:23;98628.91;;;24.22;55.18
73633;BME280;61927;50.080;14.418;2023-07-28T11:07:52;98630.00;;;24.27;54.90
73633;BME280;61927;50.080;14.418;2023-07-28T11:10:19;98630.34;;;24.17;54.60
73633;BME280;61927;50.080;14.418;2023-07-28T11:12:48;98637.66;;;24.24;54.73
73633;BME280;61927;50.080;14.418;2023-07-28T11:15:15;98639.78;;;24.28;54.41
73633;BME280;61927;50.080;14.418;2023-07-28T11:17:45;98633.38;;;24.42;54.43
73633;BME280;61927;50.080;14.418;2023-07-28T11:20:22;98628.81;;;24.43;54.18
73633;BME280;61927;50.080;14.418;2023-07-28T11:23:00;98630.47;;;24.44;53.76
73633;BME280;61927;50.080;14.418;2023-07-28T11:25:28;98624.84;;;24.45;54.35
73633;BME280;61927;50.080;14.418;2023-07-28T11:27:54;98636.56;;;24.59;53.51
73633;BME280;61927;50.080;14.418;2023-07-28T11:30:21;98624.06;;;24.65;52.93
73633;BME280;61927;50.080;14.418;2023-07-28T11:32:49;98631.56;;;24.63;52.29
73633;BME280;61927;50.080;14.418;2023-07-28T11:35:17;98626.34;;;24.55;52.47
73633;BME280;61927;50.080;14.418;2023-07-28T11:37:45;98635.06;;;24.43;53.58
73633;BME280;61927;50.080;14.418;2023-07-28T11:40:11;98636.06;;;24.29;53.48
73633;BME280;61927;50.080;14.418;2023-07-28T11:42:49;98637.59;;;24.10;53.83
73633;BME280;61927;50.080;14.418;2023-07-28T11:45:17;98642.66;;;23.86;55.05
73633;BME280;61927;50.080;14.418;2023-07-28T11:48:07;98639.41;;;23.62;55.82
73633;BME280;61927;50.080;14.418;2023-07-28T11:50:39;98641.56;;;23.73;56.33
73633;BME280;61927;50.080;14.418;2023-07-28T11:53:06;98637.66;;;23.82;55.80
73633;BME280;61927;50.080;14.418;2023-07-28T11:55:36;98624.38;;;23.94;55.84
73633;BME280;61927;50.080;14.418;2023-07-28T11:58:02;98624.00;;;24.04;55.78
73633;BME280;61927;50.080;14.418;2023-07-28T12:00:35;98626.19;;;24.22;54.94
73633;BME280;61927;50.080;14.418;2023-07-28T12:03:08;98622.97;;;24.46;53.92
73633;BME280;61927;50.080;14.418;2023-07-28T12:05:38;98611.16;;;24.73;52.79
73633;BME280;61927;50.080;14.418;2023-07-28T12:08:05;98616.41;;;24.95;51.85
73633;BME280;61927;50.080;14.418;2023-07-28T12:10:33;98615.41;;;25.09;52.13
73633;BME280;61927;50.080;14.418;2023-07-28T12:13:06;98619.59;;;25.11;52.10
73633;BME280;61927;50.080;14.418;2023-07-28T12:15:33;98615.81;;;25.13;51.50
73633;BME280;61927;50.080;14.418;2023-07-28T12:18:07;98620.41;;;25.25;51.42
73633;BME280;61927;50.080;14.418;2023-07-28T12:20:39;98625.22;;;25.36;50.83
73633;BME280;61927;50.080;14.418;2023-07-28T12:23:06;98617.69;;;25.45;50.60
73633;BME280;61927;50.080;14.418;2023-07-28T12:25:32;98611.03;;;25.28;49.90
73633;BME280;61927;50.080;14.418;2023-07-28T12:27:58;98611.44;;;25.11;50.48
73633;BME280;61927;50.080;14.418;2023-07-28T12:30:24;98613.94;;;25.00;50.73
73633;BME280;61927;50.080;14.418;2023-07-28T12:32:50;98619.94;;;24.95;50.54
73633;BME280;61927;50.080;14.418;2023-07-28T12:35:16;98615.41;;;25.02;50.58
73633;BME280;61927;50.080;14.418;2023-07-28T12:37:41;98621.66;;;25.16;50.75
73633;BME280;61927;50.080;14.418;2023-07-28T12:40:07;98613.72;;;25.15;50.61
73633;BME280;61927;50.080;14.418;2023-07-28T12:42:34;98616.25;;;25.09;50.85
73633;BME280;61927;50.080;14.418;2023-07-28T12:44:59;98613.53;;;25.09;50.98
73633;BME280;61927;50.080;14.418;2023-07-28T12:47:25;98618.97;;;25.23;50.61
73633;BME280;61927;50.080;14.418;2023-07-28T12:49:51;98607.25;;;25.29;49.83
73633;BME280;61927;50.080;14.418;2023-07-28T12:52:16;98608.72;;;25.38;49.06
73633;BME280;61927;50.080;14.418;2023-07-28T12:54:42;98609.34;;;25.47;49.43
73633;BME280;61927;50.080;14.418;2023-07-28T12:57:08;98605.78;;;25.53;49.07
73633;BME280;61927;50.080;14.418;2023-07-28T12:59:36;98600.56;;;25.51;48.72